Latest Weather Observations for Innisfail Aero

IDQ60801

Issued at 6:02 pm EST Monday 25 September 2017 (issued every 30 minutes, with the page automatically refreshed every 10 minutes)

About weather observations | Map of weather stations | Latest weather observations for QLD | Other Formats
Station Details ID: 032197 Name: INNISFAIL AERODROME Lat: -17.56 Lon: 146.01 Height: 11.84 m
Data from the previous 72 hours. | See also: Recent months for locations in Queensland
Date/Time
EST
Temp
°C
App
Temp
°C
Dew
Point
°C
Rel
Hum
%
Delta-T
°C
Wind Press
QNH
hPa
Press
MSL
hPa
Rain since
9am
mm
Dir  Spd
km/h
Gust
km/h
Spd
kts
Gust
kts
25/06:00pm 23.5 24.5 17.7 70 3.6 E 9 13 5 7 1013.4 1013.4 0.0
25/05:30pm 24.5 24.9 18.2 68 4.0 ENE 13 17 7 9 1013.1 1013.1 0.0
25/05:00pm 25.3 25.6 18.0 64 4.6 E 13 20 7 11 1013.0 1013.0 0.0
25/04:30pm 25.7 25.2 17.9 62 4.9 ENE 17 26 9 14 1012.8 1012.8 0.0
25/04:00pm 26.6 26.3 18.2 60 5.3 ENE 17 22 9 12 1012.7 1012.7 0.0
25/03:30pm 26.8 25.8 17.6 57 5.8 ENE 19 28 10 15 1012.8 1012.8 0.0
25/03:00pm 26.7 25.6 16.3 53 6.4 E 17 24 9 13 1012.9 1012.9 0.0
25/02:30pm 27.5 26.5 16.5 51 6.8 E 17 24 9 13 1013.2 1013.2 0.0
25/02:00pm 27.4 26.2 16.1 50 7.0 E 17 24 9 13 1013.5 1013.5 0.0
25/01:30pm 27.6 27.0 16.6 51 6.8 E 15 22 8 12 1013.8 1013.8 0.0
25/01:00pm 27.4 26.3 16.4 51 6.8 ENE 17 24 9 13 1014.2 1014.2 0.0
25/12:30pm 27.9 27.9 17.1 51 6.8 ENE 13 22 7 12 1014.6 1014.6 0.0
25/12:00pm 27.1 26.4 16.4 52 6.6 ESE 15 20 8 11 1015.1 1015.1 0.0
25/11:30am 26.0 26.9 16.5 55 5.9 E 7 17 4 9 1015.8 1015.8 0.0
25/11:00am 26.8 26.0 15.2 49 7.0 ENE 13 17 7 9 1016.1 1016.1 0.0
25/10:30am 26.2 26.5 15.9 53 6.3 E 9 15 5 8 1016.5 1016.5 0.0
25/10:00am 26.1 26.9 17.2 58 5.5 ENE 9 15 5 8 1016.8 1016.8 0.0
25/09:30am 25.1 26.7 18.3 66 4.3 SSW 7 11 4 6 1017.0 1017.0 0.0
25/09:00am 23.7 26.0 18.6 73 3.2 WNW 4 9 2 5 1017.0 1017.0 0.0
25/08:30am 21.7 24.3 19.3 86 1.5 NW 4 7 2 4 1016.9 1016.9 0.0
25/08:00am 19.2 21.1 18.5 96 0.4 SW 6 7 3 4 1016.7 1016.7 0.0
25/07:30am 17.8 20.5 17.8 100 0.0 CALM 0 4 0 2 1016.4 1016.4 0.0
25/07:00am 16.8 18.4 16.8 100 0.0 NW 4 7 2 4 1016.1 1016.1 0.0
25/06:30am 14.5 15.9 14.3 99 0.1 CALM 0 0 0 0 1015.8 1015.8 0.0
25/06:00am 15.2 16.8 15.0 99 0.1 CALM 0 0 0 0 1015.4 1015.4 0.0
25/05:30am 14.8 16.3 14.6 99 0.1 CALM 0 0 0 0 1015.1 1015.1 0.0
25/05:00am 15.1 15.6 14.9 99 0.1 NNW 6 7 3 4 1014.8 1014.8 0.0
25/04:30am 15.0 15.2 14.8 99 0.1 NW 7 7 4 4 1014.5 1014.5 0.0
25/04:00am 15.4 15.8 15.2 99 0.1 NW 7 9 4 5 1014.4 1014.4 0.0
25/03:30am 16.3 17.2 16.1 99 0.1 N 6 7 3 4 1014.2 1014.2 0.0
25/03:00am 15.8 17.6 15.6 99 0.1 CALM 0 0 0 0 1014.2 1014.2 0.0
25/02:30am 15.6 17.0 15.4 99 0.1 SW 2 6 1 3 1014.3 1014.3 0.0
25/02:08am 15.9 16.6 15.7 99 0.1 W 6 7 3 4 1014.4 1014.4 0.0
25/02:00am 15.8 16.3 15.6 99 0.1 WNW 7 7 4 4 1014.4 1014.4 0.0
25/01:30am 15.6 15.6 15.3 98 0.2 N 9 9 5 5 1014.6 1014.6 0.0
25/01:16am 16.0 16.7 15.7 98 0.2 N 6 7 3 4 1014.7 1014.7 0.0
25/01:00am 15.7 16.3 15.2 97 0.3 N 6 7 3 4 1014.8 1014.8 0.0
25/12:30am 16.2 17.7 15.6 96 0.4 NW 2 7 1 4 1014.9 1014.9 0.0
25/12:00am 17.5 19.9 17.0 97 0.3 CALM 0 0 0 0 1015.2 1015.2 0.0
 
Date/Time
EST
Temp
°C
App
Temp
°C
Dew
Point
°C
Rel
Hum
%
Delta-T
°C
Wind Press
QNH
hPa
Press
MSL
hPa
Rain since
9am
mm
Dir  Spd
km/h
Gust
km/h
Spd
kts
Gust
kts
24/11:30pm 17.4 18.6 16.8 96 0.4 WNW 6 7 3 4 1015.4 1015.4 0.0
24/11:00pm 18.3 21.0 17.8 97 0.3 CALM 0 0 0 0 1015.5 1015.5 0.0
24/10:30pm 17.4 19.7 16.8 96 0.4 CALM 0 0 0 0 1015.5 1015.5 0.0
24/10:00pm 18.0 19.8 17.4 96 0.4 SW 4 6 2 3 1015.5 1015.5 0.0
24/09:30pm 17.5 19.7 16.5 94 0.6 CALM 0 0 0 0 1015.3 1015.3 0.0
24/09:00pm 18.3 20.8 17.3 94 0.6 CALM 0 0 0 0 1015.2 1015.2 0.0
24/08:30pm 18.7 20.1 17.4 92 0.8 SSW 6 7 3 4 1014.9 1014.9 0.0
24/08:00pm 19.5 20.8 17.5 88 1.2 SSW 7 9 4 5 1014.6 1014.6 0.0
24/07:30pm 20.1 21.8 18.1 88 1.2 SSE 6 7 3 4 1014.3 1014.3 0.0
24/07:00pm 20.9 22.3 17.7 82 2.0 E 7 7 4 4 1014.2 1014.2 0.0
24/06:30pm 22.0 23.4 17.8 77 2.6 ESE 7 9 4 5 1013.9 1013.9 0.0
24/06:00pm 23.5 24.2 17.9 71 3.5 E 11 15 6 8 1013.7 1013.7 0.0
24/05:30pm 24.6 25.0 18.1 67 4.1 E 13 19 7 10 1013.5 1013.5 0.0
24/05:00pm 25.2 24.7 17.7 63 4.7 ENE 17 22 9 12 1013.3 1013.3 0.0
24/04:30pm 25.1 24.3 18.1 65 4.4 E 19 26 10 14 1013.2 1013.2 0.0
24/04:00pm 26.7 26.5 18.6 61 5.2 E 17 24 9 13 1013.0 1013.0 0.0
24/03:30pm 27.0 27.0 18.0 58 5.7 ENE 15 20 8 11 1013.2 1013.2 0.0
24/03:00pm 27.0 26.4 17.5 56 6.0 ENE 17 24 9 13 1013.4 1013.4 0.0
24/02:30pm 27.0 26.4 17.5 56 6.0 ENE 17 22 9 12 1013.7 1013.7 0.0
24/02:00pm 27.3 27.3 18.0 56 5.9 E 15 26 8 14 1014.1 1014.1 0.0
24/01:30pm 27.6 27.3 18.3 57 5.9 ENE 17 24 9 13 1014.4 1014.4 0.0
24/01:00pm 27.6 27.2 17.2 53 6.5 ENE 15 22 8 12 1014.7 1014.7 0.0
24/12:30pm 26.9 25.7 16.2 52 6.6 ENE 17 26 9 14 1015.1 1015.1 0.0
24/12:00pm 27.3 26.1 15.0 47 7.4 E 15 28 8 15 1015.6 1015.6 0.0
24/11:30am 27.5 26.8 17.4 54 6.3 ENE 17 24 9 13 1016.1 1016.1 0.0
24/11:00am 26.1 26.1 18.2 61 5.0 SE 15 20 8 11 1016.6 1016.6 0.0
24/10:30am 26.5 27.4 18.4 61 5.2 SSE 11 20 6 11 1016.8 1016.8 0.0
24/10:00am 25.6 26.1 18.3 64 4.6 ESE 13 19 7 10 1017.0 1017.0 0.0
24/09:30am 24.7 26.4 18.6 69 3.9 SE 7 15 4 8 1017.2 1017.2 0.0
24/09:00am 24.7 27.7 20.0 75 3.0 SE 4 9 2 5 1017.2 1017.2 0.0
24/08:30am 21.9 24.8 19.8 88 1.3 N 4 7 2 4 1017.2 1017.2 0.0
24/08:00am 20.1 23.5 19.3 95 0.5 CALM 0 0 0 0 1017.0 1017.0 0.0
24/07:30am 19.3 22.6 19.1 99 0.1 CALM 0 0 0 0 1016.7 1016.7 0.0
24/07:00am 18.1 21.0 18.1 100 0.0 CALM 0 0 0 0 1016.4 1016.4 0.0
24/06:30am 16.7 18.5 16.5 99 0.1 W 2 6 1 3 1016.1 1016.1 0.0
24/06:00am 16.7 17.8 16.5 99 0.1 WNW 6 7 3 4 1015.8 1015.8 0.0
24/05:30am 17.2 18.3 17.0 99 0.1 NW 7 9 4 5 1015.5 1015.5 0.0
24/05:00am 16.9 18.8 16.7 99 0.1 NW 2 7 1 4 1015.4 1015.4 0.0
24/04:30am 17.6 19.8 17.4 99 0.1 SW 2 6 1 3 1015.1 1015.1 0.0
24/04:00am 17.3 19.0 17.1 99 0.1 WSW 4 6 2 3 1015.0 1015.0 0.0
24/03:30am 17.0 18.2 16.8 99 0.1 WNW 6 9 3 5 1014.9 1014.9 0.0
24/03:19am 17.1 19.5 16.9 99 0.1 CALM 0 0 0 0 1015.0 1015.0 0.0
24/03:02am 17.3 19.4 17.1 99 0.1 N 2 6 1 3 1015.0 1015.0 0.0
24/03:00am 17.3 19.4 17.1 99 0.1 N 2 6 1 3 1015.0 1015.0 0.0
24/02:45am 16.9 17.8 16.7 99 0.1 N 7 7 4 4 1014.9 1014.9 0.0
24/02:30am 16.2 16.8 15.9 98 0.2 N 7 9 4 5 1015.1 1015.1 0.0
24/02:28am 16.2 16.8 15.9 98 0.2 N 7 9 4 5 1015.1 1015.1 0.0
24/02:00am 16.0 16.6 15.4 96 0.3 WNW 6 7 3 4 1015.4 1015.4 0.0
24/01:55am 17.8 19.3 17.5 98 0.2 WSW 6 7 3 4 1015.4 1015.4 0.0
24/01:30am 18.0 20.7 17.7 98 0.2 CALM 0 0 0 0 1015.5 1015.5 0.0
24/01:00am 18.5 21.4 18.2 98 0.2 CALM 0 0 0 0 1015.8 1015.8 0.0
24/12:30am 18.4 21.2 17.9 97 0.3 CALM 0 0 0 0 1016.1 1016.1 0.0
24/12:25am 18.3 21.0 17.8 97 0.3 CALM 0 0 0 0 1016.1 1016.1 0.0
24/12:00am 19.0 22.0 18.5 97 0.3 CALM 0 0 0 0 1016.2 1016.2 0.0
 
Date/Time
EST
Temp
°C
App
Temp
°C
Dew
Point
°C
Rel
Hum
%
Delta-T
°C
Wind Press
QNH
hPa
Press
MSL
hPa
Rain since
9am
mm
Dir  Spd
km/h
Gust
km/h
Spd
kts
Gust
kts
23/11:30pm 18.8 21.2 18.0 95 0.5 NNW 2 6 1 3 1016.3 1016.3 0.0
23/11:00pm 19.2 21.3 18.2 94 0.6 WSW 4 9 2 5 1016.3 1016.3 0.0
23/10:30pm 19.9 21.3 18.7 93 0.7 WSW 9 11 5 6 1016.3 1016.3 0.0
23/10:00pm 20.2 22.0 18.7 91 0.9 SW 7 9 4 5 1016.5 1016.5 0.0
23/09:30pm 20.5 22.5 18.8 90 1.1 SSW 6 6 3 3 1016.5 1016.5 0.0
23/09:00pm 21.4 23.8 19.7 90 1.1 SSE 6 7 3 4 1016.5 1016.5 0.0
23/08:30pm 20.9 23.7 19.7 93 0.8 W 4 7 2 4 1016.4 1016.4 0.0
23/08:00pm 21.2 23.3 18.9 87 1.4 S 6 6 3 3 1016.0 1016.0 0.0
23/07:30pm 21.5 23.6 18.9 85 1.6 SSE 6 7 3 4 1015.7 1015.7 0.0
23/07:00pm 22.2 24.1 19.0 82 2.0 ESE 7 9 4 5 1015.4 1015.4 0.0
23/06:30pm 22.1 23.8 18.5 80 2.3 E 7 9 4 5 1015.3 1015.3 0.0
23/06:00pm 23.7 24.7 18.6 73 3.2 E 11 15 6 8 1015.0 1015.0 0.0
23/05:30pm 24.6 25.2 18.5 69 3.9 ENE 13 19 7 10 1014.8 1014.8 0.0
23/05:00pm 25.3 25.8 19.2 69 3.9 ENE 15 20 8 11 1014.7 1014.7 0.0
23/04:30pm 25.7 26.2 19.3 67 4.1 ENE 15 22 8 12 1014.4 1014.4 0.0
23/04:00pm 26.4 26.6 19.3 65 4.6 E 17 22 9 12 1014.6 1014.6 0.0
23/03:30pm 26.7 26.6 18.8 62 5.1 ENE 17 22 9 12 1014.6 1014.6 0.0
23/03:00pm 26.5 26.7 18.6 62 5.0 ESE 15 22 8 12 1014.7 1014.7 0.0
23/02:30pm 27.2 28.0 19.8 64 4.8 E 15 26 8 14 1014.8 1014.8 0.0
23/02:00pm 27.1 27.3 19.4 62 5.0 ENE 17 24 9 13 1015.2 1015.2 0.0
23/01:30pm 27.8 28.2 19.8 61 5.2 ENE 17 26 9 14 1015.4 1015.4 0.0
23/01:00pm 27.6 27.6 19.7 62 5.1 ENE 19 28 10 15 1015.6 1015.6 0.0
23/12:30pm 27.6 28.2 20.2 64 4.8 ENE 17 28 9 15 1016.1 1016.1 0.0
23/12:00pm 27.7 28.4 20.5 65 4.7 E 17 30 9 16 1016.4 1016.4 0.0
23/11:30am 27.6 28.4 19.9 63 5.0 SE 15 26 8 14 1016.8 1016.8 0.0
23/11:00am 27.4 28.4 19.5 62 5.1 ESE 13 20 7 11 1017.3 1017.3 0.0
23/10:30am 27.0 28.4 18.6 60 5.4 ESE 9 15 5 8 1017.7 1017.7 0.0
23/10:00am 26.0 28.4 20.8 73 3.4 SSE 9 13 5 7 1017.9 1017.9 0.0
23/09:30am 25.1 26.9 19.5 71 3.6 SE 9 15 5 8 1018.2 1018.2 0.0
23/09:18am 24.7 26.8 20.2 76 2.9 SE 9 20 5 11 1018.3 1018.3 0.0
23/09:02am 24.1 26.6 20.2 79 2.5 S 7 13 4 7 1018.3 1018.3 0.0
23/09:00am 24.1 26.6 20.2 79 2.5 SSW 7 13 4 7 1018.3 1018.3 0.0
23/08:30am 22.2 25.7 21.9 98 0.2 W 6 9 3 5 1018.0 1018.0 0.0
23/08:00am 20.8 23.6 20.8 100 0.0 WNW 7 9 4 5 1017.7 1017.7 0.0
23/07:30am 19.0 21.1 19.0 100 0.0 NE 6 7 3 4 1017.4 1017.4 0.0
23/07:00am 18.1 19.6 18.1 100 0.0 NNW 7 7 4 4 1016.8 1016.8 0.0
23/06:38am 16.4 17.2 16.4 100 0.0 NNW 7 9 4 5 1016.7 1016.7 0.0
23/06:30am 16.4 17.4 16.4 100 0.0 NW 6 7 3 4 1016.6 1016.6 0.0
23/06:24am 16.5 17.4 16.5 100 0.0 NW 7 7 4 4 1016.6 1016.6 0.0
23/06:20am 16.5 17.4 16.5 100 0.0 WNW 7 9 4 5 1016.5 1016.5 0.0
23/06:00am 16.8 17.8 16.8 100 0.0 WNW 7 7 4 4 1016.4 1016.4 0.0
23/05:30am 16.3 17.2 16.1 99 0.1 N 6 7 3 4 1016.1 1016.1 0.0
23/05:00am 16.5 17.5 16.3 99 0.1 N 6 9 3 5 1015.8 1015.8 0.0
23/04:30am 16.9 17.8 16.7 99 0.1 NNW 7 7 4 4 1015.7 1015.7 0.0
23/04:00am 17.2 18.5 17.0 99 0.1 NNW 6 7 3 4 1015.4 1015.4 0.0
23/03:30am 17.3 18.6 17.1 99 0.1 NNW 6 7 3 4 1015.5 1015.5 0.0
23/03:00am 17.0 18.0 16.8 99 0.1 NNW 7 7 4 4 1015.6 1015.6 0.0
23/02:45am 17.1 19.0 16.8 98 0.2 N 2 7 1 4 1015.8 1015.8 0.0
23/02:30am 18.0 20.7 17.8 99 0.1 CALM 0 0 0 0 1016.0 1016.0 0.0
23/02:00am 17.9 20.6 17.7 99 0.1 CALM 0 0 0 0 1016.2 1016.2 0.0
23/01:30am 18.1 20.9 17.9 99 0.1 CALM 0 0 0 0 1016.4 1016.4 0.0
23/01:09am 18.1 20.9 17.9 99 0.1 CALM 0 0 0 0 1016.5 1016.5 0.0
23/01:04am 18.3 21.2 18.1 99 0.1 CALM 0 0 0 0 1016.5 1016.5 0.0
23/01:00am 18.4 21.3 18.2 99 0.1 CALM 0 0 0 0 1016.6 1016.6 0.0
23/12:34am 18.4 20.2 18.2 99 0.1 NNW 6 6 3 3 1016.8 1016.8 0.0
23/12:30am 18.4 20.2 18.2 99 0.1 NNW 6 6 3 3 1016.8 1016.8 0.0
23/12:19am 18.4 20.5 18.1 98 0.2 N 4 6 2 3 1016.9 1016.9 0.0
23/12:11am 18.3 20.0 18.0 98 0.2 NNW 6 7 3 4 1016.9 1016.9 0.0
23/12:00am 18.7 20.6 18.5 99 0.1 NNW 6 6 3 3 1017.0 1017.0 0.0
 
Date/Time
EST
Temp
°C
App
Temp
°C
Dew
Point
°C
Rel
Hum
%
Delta-T
°C
Wind Press
QNH
hPa
Press
MSL
hPa
Rain since
9am
mm
Dir  Spd
km/h
Gust
km/h
Spd
kts
Gust
kts
22/11:59pm 18.7 20.6 18.5 99 0.1 NNW 6 6 3 3 1017.0 1017.0 0.0
22/11:33pm 18.5 20.3 18.2 98 0.2 N 6 6 3 3 1017.1 1017.1 0.0
22/11:30pm 18.6 20.4 18.3 98 0.2 N 6 6 3 3 1017.2 1017.2 0.0
22/11:12pm 18.2 19.8 17.9 98 0.2 N 6 9 3 5 1017.4 1017.4 0.0
22/11:00pm 18.0 19.5 17.5 97 0.3 NW 6 7 3 4 1017.3 1017.3 0.0
22/10:55pm 19.0 21.0 18.7 98 0.2 W 6 7 3 4 1017.3 1017.3 0.0
22/10:37pm 19.2 22.0 18.9 98 0.2 W 2 6 1 3 1017.4 1017.4 0.0
22/10:30pm 18.9 22.0 18.6 98 0.2 CALM 0 0 0 0 1017.5 1017.5 0.0
22/10:00pm 18.2 19.6 17.4 95 0.5 WNW 6 7 3 4 1017.4 1017.4 0.0
22/09:58pm 18.0 19.3 17.0 94 0.6 WNW 6 6 3 3 1017.3 1017.3 0.0
22/09:30pm 19.2 21.3 18.2 94 0.6 SW 4 7 2 4 1017.1 1017.1 0.0
22/09:00pm 19.9 22.0 18.9 94 0.6 WSW 6 7 3 4 1017.0 1017.0 0.0
22/08:30pm 20.5 22.6 19.3 93 0.8 SW 7 7 4 4 1016.7 1016.7 0.0
22/08:00pm 20.9 23.1 19.6 92 0.8 SSW 7 9 4 5 1016.4 1016.4 0.0
22/07:30pm 21.2 24.2 19.3 89 1.2 SSE 2 7 1 4 1016.1 1016.1 0.0
22/07:00pm 22.3 24.7 19.7 85 1.7 E 6 7 3 4 1015.7 1015.7 0.0
22/06:30pm 22.9 25.1 19.7 82 2.1 E 7 9 4 5 1015.5 1015.5 0.0

Other Formats:

Comma delimited format used in spreadsheet applications
http://www.bom.gov.au/fwo/IDQ60801/IDQ60801.94280.axf

JavaScript Object Notation format (JSON) in row-major order
http://www.bom.gov.au/fwo/IDQ60801/IDQ60801.94280.json